Actual water levels and discharges of Morava river

Lanžhot

Date and time (UTC) H (cm) Q (m3/s)
13. 7. 2020 11:10 121 67
13. 7. 2020 11:00 123 68
13. 7. 2020 10:00 122 68
13. 7. 2020 09:00 123 68
13. 7. 2020 08:00 122 68
13. 7. 2020 07:00 121 67
13. 7. 2020 06:00 122 68
13. 7. 2020 05:00 121 67
13. 7. 2020 04:00 121 67
13. 7. 2020 03:00 120 66
13. 7. 2020 02:00 119 66
13. 7. 2020 01:00 119 66
13. 7. 2020 00:00 118 65
12. 7. 2020 23:00 117 64

H - water level, Q - discharge

Strážnice

Date and time (UTC) H (cm) Q (m3/s)
13. 7. 2020 11:40 216 71.7
13. 7. 2020 11:00 218 73
13. 7. 2020 10:00 219 73
13. 7. 2020 09:00 218 73
13. 7. 2020 08:00 218 73
13. 7. 2020 07:00 219 73
13. 7. 2020 06:00 219 73
13. 7. 2020 05:00 219 73
13. 7. 2020 04:00 219 73
13. 7. 2020 03:00 219 73
13. 7. 2020 02:00 219 73
13. 7. 2020 01:00 218 73
13. 7. 2020 00:00 218 73
12. 7. 2020 23:00 217 72

H - water level, Q - discharge
more information

Spytihněv

Date and time (UTC) H (cm) Q (m3/s)
13. 7. 2020 11:40 172 65.3
13. 7. 2020 11:00 176 68
13. 7. 2020 10:00 182 73
13. 7. 2020 09:00 169 63
13. 7. 2020 08:00 179 70
13. 7. 2020 07:00 181 72
13. 7. 2020 06:00 182 73
13. 7. 2020 05:00 183 73
13. 7. 2020 04:00 184 74
13. 7. 2020 03:00 185 75
13. 7. 2020 02:00 186 76
13. 7. 2020 01:00 187 76
13. 7. 2020 00:00 191 79
12. 7. 2020 23:00 187 76

H - water level, Q - discharge

Kroměříž

Date and time (UTC) H (cm) Q (m3/s)
13. 7. 2020 11:40 189 55.4
13. 7. 2020 11:00 190 56
13. 7. 2020 10:00 191 57
13. 7. 2020 09:00 192 58
13. 7. 2020 08:00 193 59
13. 7. 2020 07:00 194 59
13. 7. 2020 06:00 195 60
13. 7. 2020 05:00 196 61
13. 7. 2020 04:00 197 62
13. 7. 2020 03:00 198 63
13. 7. 2020 02:00 199 64
13. 7. 2020 01:00 201 65
13. 7. 2020 00:00 203 67
12. 7. 2020 23:00 204 68

H - water level, Q - discharge
more information

Olomouc-Nové Sady tok

Date and time (UTC) H (cm) Q (m3/s)
13. 7. 2020 11:40 171 40.4
13. 7. 2020 11:00 172 41
13. 7. 2020 10:00 174 42
13. 7. 2020 09:00 175 42
13. 7. 2020 08:00 175 42
13. 7. 2020 07:00 175 42
13. 7. 2020 06:00 176 43
13. 7. 2020 05:00 178 44
13. 7. 2020 04:00 179 44
13. 7. 2020 03:00 180 44
13. 7. 2020 02:00 182 45
13. 7. 2020 01:00 184 46
13. 7. 2020 00:00 185 47
12. 7. 2020 23:00 187 48

H - water level, Q - discharge

Moravičany

Date and time (UTC) H (cm) Q (m3/s)
13. 7. 2020 11:40 99 13.7
13. 7. 2020 11:00 99 14
13. 7. 2020 10:00 98 13
13. 7. 2020 09:00 99 14
13. 7. 2020 08:00 99 14
13. 7. 2020 07:00 99 14
13. 7. 2020 06:00 99 14
13. 7. 2020 05:00 99 14
13. 7. 2020 04:00 99 14
13. 7. 2020 03:00 100 14
13. 7. 2020 02:00 100 14
13. 7. 2020 01:00 101 15
13. 7. 2020 00:00 102 15
12. 7. 2020 23:00 102 15

H - water level, Q - discharge
Source data
Labe Basin Vltava Basin Povodí Moravy ČHMÚ